Time;durP1;ratioP1;P1;durP2;ratioP2;P2;SDS_P1;SDS_P2;PMS_P1;PMS_P2;Temp;Humidity;BMP_temperature;BMP_pressure;BME280_temperature;BME280_humidity;BME280_pressure;Samples;Min_cycle;Max_cycle;Signal;HPM_P1;HPM_P2
2022/12/10 00:00:36;;;;;;;51.10;29.33;;;;;;;-148.33;100.00;56587.81;4986605;28;20038;-67
2022/12/10 00:03:02;;;;;;;53.60;30.33;;;;;;;-148.33;100.00;56587.81;4986586;28;20042;-67
2022/12/10 00:05:27;;;;;;;51.73;29.10;;;;;;;-148.33;100.00;56587.81;4986714;28;20030;-67
2022/12/10 00:07:53;;;;;;;50.00;29.40;;;;;;;-148.33;100.00;56587.81;4986648;28;20030;-67
2022/12/10 00:10:18;;;;;;;53.80;31.63;;;;;;;-148.33;100.00;56587.81;4987078;28;20030;-66
2022/12/10 00:12:43;;;;;;;52.33;29.93;;;;;;;-148.33;100.00;56587.81;4986110;28;20038;-67
2022/12/10 00:15:09;;;;;;;51.70;28.83;;;;;;;-148.33;100.00;56587.81;4987319;28;20445;-65
2022/12/10 00:17:34;;;;;;;52.17;29.83;;;;;;;-148.33;100.00;56587.81;4987278;28;20270;-64
2022/12/10 00:19:59;;;;;;;51.00;30.33;;;;;;;-148.33;100.00;56587.81;4987372;28;20113;-64
2022/12/10 00:22:25;;;;;;;51.17;27.63;;;;;;;-148.33;100.00;56587.81;4986382;28;20474;-64
2022/12/10 00:24:50;;;;;;;49.00;27.37;;;;;;;-148.33;100.00;56587.81;4984880;28;20045;-67
2022/12/10 00:27:15;;;;;;;51.23;29.47;;;;;;;-148.33;100.00;56587.81;4986914;28;20458;-67
2022/12/10 00:29:40;;;;;;;54.83;29.73;;;;;;;-148.33;100.00;56587.81;4986986;28;20061;-67
2022/12/10 00:32:06;;;;;;;51.07;29.43;;;;;;;-148.33;100.00;56587.81;4985004;28;20328;-67
2022/12/10 00:34:31;;;;;;;49.00;28.77;;;;;;;-148.33;100.00;56587.81;4979054;28;20026;-67
2022/12/10 00:36:56;;;;;;;56.77;31.10;;;;;;;-148.33;100.00;56587.81;4985527;28;20037;-67
2022/12/10 00:39:22;;;;;;;55.67;29.27;;;;;;;-148.33;100.00;56587.81;4985755;28;20325;-66
2022/12/10 00:41:48;;;;;;;53.97;30.87;;;;;;;-148.33;100.00;56587.81;4985044;28;20333;-66
2022/12/10 00:44:14;;;;;;;58.40;29.97;;;;;;;-148.33;100.00;56587.81;4985030;28;20026;-66
2022/12/10 00:46:40;;;;;;;58.00;32.03;;;;;;;-148.33;100.00;56587.81;4985087;28;20073;-66
2022/12/10 00:49:05;;;;;;;53.50;30.33;;;;;;;-148.33;100.00;56587.81;4986774;28;20036;-67
2022/12/10 00:51:31;;;;;;;55.43;28.63;;;;;;;-148.33;100.00;56587.81;4983737;28;20387;-66
2022/12/10 00:53:58;;;;;;;49.47;29.13;;;;;;;-148.33;100.00;56587.81;4984412;28;20219;-67
2022/12/10 00:56:26;;;;;;;53.07;28.70;;;;;;;-148.33;100.00;56587.81;4986833;28;20027;-66
2022/12/10 00:58:52;;;;;;;51.87;29.83;;;;;;;-148.33;100.00;56587.81;4990010;28;20458;-67
2022/12/10 01:01:24;;;;;;;53.33;30.60;;;;;;;-148.33;100.00;56587.81;4990500;28;20049;-67
2022/12/10 01:03:52;;;;;;;46.67;28.17;;;;;;;-148.33;100.00;56587.81;4988134;28;20105;-67
2022/12/10 01:06:21;;;;;;;49.50;27.80;;;;;;;-148.33;100.00;56587.81;4989584;28;20386;-67
2022/12/10 01:08:47;;;;;;;53.17;28.97;;;;;;;-148.33;100.00;56587.81;4990960;28;20033;-67
2022/12/10 01:11:15;;;;;;;48.57;29.63;;;;;;;-148.33;100.00;56587.81;4990817;28;20335;-66
2022/12/10 01:13:41;;;;;;;52.30;29.60;;;;;;;-148.33;100.00;56587.81;4990750;28;20069;-67
2022/12/10 01:16:12;;;;;;;50.53;29.00;;;;;;;-148.33;100.00;56587.81;4991163;28;20030;-66
2022/12/10 01:18:38;;;;;;;55.85;30.65;;;;;;;-148.33;100.00;56587.81;4990074;28;20029;-66
2022/12/10 01:21:05;;;;;;;53.83;29.60;;;;;;;-148.33;100.00;56587.81;4985710;28;20031;-66
2022/12/10 01:23:39;;;;;;;53.43;29.87;;;;;;;-148.33;100.00;56587.81;4983562;28;20117;-67
2022/12/10 01:26:11;;;;;;;57.20;29.47;;;;;;;-148.33;100.00;56587.81;4990216;28;20038;-67
2022/12/10 01:28:38;;;;;;;53.07;30.10;;;;;;;-148.33;100.00;56587.81;4990350;28;20034;-67
2022/12/10 01:31:06;;;;;;;50.30;29.67;;;;;;;-148.33;100.00;56587.81;4990766;28;20414;-67
2022/12/10 01:33:32;;;;;;;52.00;28.97;;;;;;;-148.33;100.00;56587.81;4989997;28;20045;-67
2022/12/10 01:36:15;;;;;;;50.70;28.70;;;;;;;-148.33;100.00;56587.81;4990248;28;20026;-66
2022/12/10 01:38:41;;;;;;;54.93;30.00;;;;;;;-148.33;100.00;56587.81;4989846;28;20069;-66
2022/12/10 01:41:09;;;;;;;53.47;29.40;;;;;;;-148.33;100.00;56587.81;4989758;28;20023;-67
2022/12/10 01:44:01;;;;;;;53.60;30.40;;;;;;;-148.33;100.00;56587.81;4990195;28;20026;-66
2022/12/10 01:46:28;;;;;;;;;;;;;;;-148.33;100.00;56587.81;4978165;28;20566;-66
2022/12/10 01:48:54;;;;;;;51.53;27.63;;;;;;;-148.33;100.00;56587.81;4988307;28;20000;-67
2022/12/10 01:51:20;;;;;;;55.93;31.73;;;;;;;-148.33;100.00;56587.81;4989272;28;20121;-66
2022/12/10 01:53:46;;;;;;;51.97;28.93;;;;;;;-148.33;100.00;56587.81;4990015;28;20061;-67
2022/12/10 01:56:12;;;;;;;57.93;31.33;;;;;;;-148.33;100.00;56587.81;4989321;28;20030;-66
2022/12/10 01:58:38;;;;;;;52.37;29.30;;;;;;;-148.33;100.00;56587.81;4989674;28;20570;-67
2022/12/10 02:01:26;;;;;;;64.87;33.30;;;;;;;-148.33;100.00;56587.81;4989136;28;20026;-67
2022/12/10 02:04:15;;;;;;;69.90;35.13;;;;;;;-148.33;100.00;56587.81;4989953;28;20548;-67
2022/12/10 02:06:58;;;;;;;68.00;34.37;;;;;;;-148.33;100.00;56587.81;4988214;28;20030;-66
2022/12/10 02:09:45;;;;;;;66.53;34.00;;;;;;;-148.33;100.00;56587.81;4989903;28;20486;-66
2022/12/10 02:12:22;;;;;;;68.00;34.87;;;;;;;-148.33;100.00;56587.81;4982410;28;20113;-67
2022/12/10 02:15:00;;;;;;;64.13;34.97;;;;;;;-148.33;100.00;56587.81;4978124;28;20041;-66
2022/12/10 02:17:31;;;;;;;71.60;35.03;;;;;;;-148.33;100.00;56587.81;4989803;28;20057;-67
2022/12/10 02:20:04;;;;;;;71.50;36.65;;;;;;;-148.33;100.00;56587.81;4989105;28;20551;-66
2022/12/10 02:22:36;;;;;;;64.00;33.40;;;;;;;-148.33;100.00;56587.81;4988147;28;20061;-66
2022/12/10 02:25:04;;;;;;;67.63;31.57;;;;;;;-148.33;100.00;56587.81;4989140;28;20061;-66
2022/12/10 02:27:52;;;;;;;67.90;34.27;;;;;;;-148.33;100.00;56587.81;4988541;28;20018;-66
2022/12/10 02:30:17;;;;;;;71.30;33.60;;;;;;;-148.33;100.00;56587.81;4989356;28;20107;-66
2022/12/10 02:32:45;;;;;;;60.57;33.50;;;;;;;-148.33;100.00;56587.81;4989205;28;20026;-67
2022/12/10 02:35:17;;;;;;;73.33;38.03;;;;;;;-148.33;100.00;56587.81;4988386;28;20030;-67
2022/12/10 02:37:50;;;;;;;74.87;36.80;;;;;;;-148.33;100.00;56587.81;4988952;28;20703;-66
2022/12/10 02:40:24;;;;;;;73.80;37.43;;;;;;;-148.33;100.00;56587.81;4988911;28;20027;-66
2022/12/10 02:42:51;;;;;;;77.27;37.27;;;;;;;-148.33;100.00;56587.81;4987416;28;20046;-66
2022/12/10 02:45:18;;;;;;;74.07;35.13;;;;;;;-148.33;100.00;56587.81;4988934;28;20511;-66
2022/12/10 02:47:43;;;;;;;68.60;36.00;;;;;;;-148.33;100.00;56587.81;4986268;28;20065;-66
2022/12/10 02:50:12;;;;;;;69.97;36.20;;;;;;;-148.33;100.00;56587.81;4988561;28;20094;-66
2022/12/10 02:52:38;;;;;;;78.10;36.70;;;;;;;-148.33;100.00;56587.81;4988533;28;20418;-67
2022/12/10 02:55:03;;;;;;;72.80;36.30;;;;;;;-148.33;100.00;56587.81;4989005;28;20030;-66
2022/12/10 02:57:59;;;;;;;71.77;37.83;;;;;;;-148.33;100.00;56587.81;4987715;28;20030;-67
2022/12/10 03:00:25;;;;;;;76.73;35.20;;;;;;;-148.33;100.00;56587.81;4980371;28;20014;-67
2022/12/10 03:03:15;;;;;;;79.70;36.27;;;;;;;-148.33;100.00;56587.81;4988874;28;20024;-66
2022/12/10 03:06:16;;;;;;;80.00;37.30;;;;;;;-148.33;100.00;56587.81;4988246;28;20022;-67
2022/12/10 03:08:59;;;;;;;75.25;34.83;;;;;;;-148.33;100.00;56587.81;4981571;28;20066;-66
2022/12/10 03:11:24;;;;;;;67.27;36.60;;;;;;;-148.33;100.00;56587.81;4976142;28;20022;-66
2022/12/10 03:14:12;;;;;;;69.93;34.77;;;;;;;-148.33;100.00;56587.81;4988378;28;20041;-66
2022/12/10 03:16:50;;;;;;;71.27;36.13;;;;;;;-148.33;100.00;56587.81;4987492;28;20425;-66
2022/12/10 03:19:19;;;;;;;68.80;36.43;;;;;;;-148.33;100.00;56587.81;4985506;28;20022;-67
2022/12/10 03:21:46;;;;;;;73.10;35.77;;;;;;;-148.33;100.00;56587.81;4987301;28;20026;-66
2022/12/10 03:24:15;;;;;;;73.93;35.03;;;;;;;-148.33;100.00;56587.81;4988685;28;20088;-67
2022/12/10 03:26:41;;;;;;;66.73;33.47;;;;;;;-148.33;100.00;56587.81;4988603;28;20057;-66
2022/12/10 03:29:13;;;;;;;67.33;34.83;;;;;;;-148.33;100.00;56587.81;4988170;28;20046;-66
2022/12/10 03:31:40;;;;;;;70.83;36.47;;;;;;;-148.33;100.00;56587.81;4987269;28;20105;-66
2022/12/10 03:34:07;;;;;;;70.27;35.73;;;;;;;-148.33;100.00;56587.81;4980305;28;20412;-67
2022/12/10 03:36:33;;;;;;;66.87;35.43;;;;;;;-148.33;100.00;56587.81;4982630;28;20030;-67
2022/12/10 03:38:59;;;;;;;69.60;35.77;;;;;;;-148.33;100.00;56587.81;4987710;28;20053;-67
2022/12/10 03:41:24;;;;;;;70.40;34.63;;;;;;;-148.33;100.00;56587.81;4988054;28;20061;-66
2022/12/10 03:44:00;;;;;;;70.67;34.30;;;;;;;-148.33;100.00;56587.81;4988212;28;20060;-66
2022/12/10 03:46:27;;;;;;;73.70;35.03;;;;;;;-148.33;100.00;56587.81;4986902;28;20482;-67
2022/12/10 03:48:53;;;;;;;62.93;31.97;;;;;;;-148.33;100.00;56587.81;4987173;28;20344;-67
2022/12/10 03:51:19;;;;;;;72.00;33.63;;;;;;;-148.33;100.00;56587.81;4986841;28;20041;-66
2022/12/10 03:53:45;;;;;;;69.50;33.53;;;;;;;-148.33;100.00;56587.81;4988000;28;20096;-66
2022/12/10 03:56:10;;;;;;;71.73;36.47;;;;;;;-148.33;100.00;56587.81;4986856;28;20026;-66
2022/12/10 03:58:35;;;;;;;67.90;34.30;;;;;;;-148.33;100.00;56587.81;4987954;28;20030;-66
2022/12/10 04:01:02;;;;;;;67.13;33.40;;;;;;;-148.33;100.00;56587.81;4988021;28;20022;-66
2022/12/10 04:03:27;;;;;;;77.70;34.33;;;;;;;-148.33;100.00;56587.81;4987177;28;20030;-67
2022/12/10 04:05:53;;;;;;;77.23;35.67;;;;;;;-148.33;100.00;56587.81;4987340;28;20479;-66
2022/12/10 04:08:18;;;;;;;73.70;34.00;;;;;;;-148.33;100.00;56587.81;4986637;28;20266;-66
2022/12/10 04:10:43;;;;;;;69.57;34.30;;;;;;;-148.33;100.00;56587.81;4987631;28;20240;-66
2022/12/10 04:18:36;;;;;;;75.90;35.33;;;;;;;-148.33;100.00;56587.81;4986558;28;20038;-66
2022/12/10 04:29:13;;;;;;;73.63;33.60;;;;;;;-148.33;100.00;56587.81;4987683;28;20414;-66
2022/12/10 04:31:39;;;;;;;78.17;34.07;;;;;;;-148.33;100.00;56587.81;4991278;28;20474;-66
2022/12/10 04:34:04;;;;;;;73.23;34.20;;;;;;;-148.33;100.00;56587.81;4991218;28;20022;-66
2022/12/10 04:36:29;;;;;;;85.37;38.80;;;;;;;-148.33;100.00;56587.81;4991110;28;20114;-67
2022/12/10 04:38:54;;;;;;;81.17;35.53;;;;;;;-148.33;100.00;56587.81;4987381;28;20055;-66
2022/12/10 04:41:20;;;;;;;84.93;35.53;;;;;;;-148.33;100.00;56587.81;4985158;28;20486;-66
2022/12/10 04:43:45;;;;;;;79.30;35.97;;;;;;;-148.33;100.00;56587.81;4991050;28;20034;-67
2022/12/10 04:46:11;;;;;;;81.37;34.10;;;;;;;-148.33;100.00;56587.81;4991168;28;20104;-66
2022/12/10 04:48:36;;;;;;;80.93;36.47;;;;;;;-148.33;100.00;56587.81;4990680;28;20031;-67
2022/12/10 04:51:02;;;;;;;83.00;36.37;;;;;;;-148.33;100.00;56587.81;4989861;28;20126;-67
2022/12/10 04:53:27;;;;;;;84.80;38.00;;;;;;;-148.33;100.00;56587.81;4990592;28;20023;-66
2022/12/10 04:55:52;;;;;;;86.60;35.60;;;;;;;-148.33;100.00;56587.81;4991402;28;20018;-67
2022/12/10 04:58:17;;;;;;;91.10;37.60;;;;;;;-148.33;100.00;56587.81;4991301;28;20045;-66
2022/12/10 05:00:43;;;;;;;84.50;35.80;;;;;;;-148.33;100.00;56587.81;4990513;28;20181;-67
2022/12/10 05:03:08;;;;;;;82.03;35.37;;;;;;;-148.33;100.00;56587.81;4991006;28;20399;-66
2022/12/10 05:05:34;;;;;;;81.37;34.73;;;;;;;-148.33;100.00;56587.81;4991237;28;20098;-66
2022/12/10 05:07:59;;;;;;;91.40;37.80;;;;;;;-148.33;100.00;56587.81;4991087;28;20018;-66
2022/12/10 05:10:25;;;;;;;81.00;35.83;;;;;;;-148.33;100.00;56587.81;4981411;28;20098;-66
2022/12/10 05:12:50;;;;;;;75.63;34.07;;;;;;;-148.33;100.00;56587.81;4989079;28;20580;-66
2022/12/10 05:15:16;;;;;;;81.47;35.77;;;;;;;-148.33;100.00;56587.81;4983884;28;20030;-66
2022/12/10 05:17:41;;;;;;;82.07;35.07;;;;;;;-148.33;100.00;56587.81;4989859;28;20074;-66
2022/12/10 05:20:07;;;;;;;85.13;35.43;;;;;;;-148.33;100.00;56587.81;4990176;28;20081;-64
2022/12/10 05:25:16;;;;;;;84.77;38.67;;;;;;;-148.33;100.00;56587.81;4986365;28;20474;-66
2022/12/10 05:27:41;;;;;;;87.43;36.10;;;;;;;-148.33;100.00;56587.81;4989511;28;20060;-66
2022/12/10 05:30:07;;;;;;;81.07;33.77;;;;;;;-148.33;100.00;56587.81;4982198;28;20054;-64
2022/12/10 05:32:33;;;;;;;83.43;37.03;;;;;;;-148.33;100.00;56587.81;4990818;28;20026;-66
2022/12/10 05:34:58;;;;;;;85.23;34.87;;;;;;;-148.33;100.00;56587.81;4990339;28;20466;-66
2022/12/10 05:37:23;;;;;;;83.20;35.37;;;;;;;-148.33;100.00;56587.81;4990746;28;20110;-67
2022/12/10 05:39:49;;;;;;;84.27;33.73;;;;;;;-148.33;100.00;56587.81;4990723;28;20022;-66
2022/12/10 05:42:14;;;;;;;78.37;32.77;;;;;;;-148.33;100.00;56587.81;4990481;28;20414;-66
2022/12/10 05:44:39;;;;;;;77.07;32.70;;;;;;;-148.33;100.00;56587.81;4979132;28;20029;-66
2022/12/10 05:47:05;;;;;;;78.93;32.90;;;;;;;-148.33;100.00;56587.81;4989322;28;20069;-66
2022/12/10 05:49:30;;;;;;;74.50;32.80;;;;;;;-148.33;100.00;56587.81;4989208;28;20072;-66
2022/12/10 05:51:56;;;;;;;82.10;33.63;;;;;;;-148.33;100.00;56587.81;4990228;28;20471;-66
2022/12/10 05:54:21;;;;;;;86.40;34.67;;;;;;;-148.33;100.00;56587.81;4989023;28;20149;-66
2022/12/10 05:56:47;;;;;;;80.33;34.23;;;;;;;-148.33;100.00;56587.81;4990393;28;20102;-66
2022/12/10 05:59:12;;;;;;;79.67;34.47;;;;;;;-148.33;100.00;56587.81;4989511;28;20458;-66
2022/12/10 06:01:37;;;;;;;88.93;35.37;;;;;;;-148.33;100.00;56587.81;4988477;28;20057;-66
2022/12/10 06:04:05;;;;;;;88.90;35.50;;;;;;;-148.33;100.00;56587.81;4989344;28;20125;-66
2022/12/10 06:06:36;;;;;;;87.47;35.23;;;;;;;-148.33;100.00;56587.81;4990277;28;20034;-66
2022/12/10 06:09:02;;;;;;;86.70;33.40;;;;;;;-148.33;100.00;56587.81;4989898;28;20030;-66
2022/12/10 06:11:28;;;;;;;87.63;35.90;;;;;;;-148.33;100.00;56587.81;4989344;28;20026;-67
2022/12/10 06:13:55;;;;;;;82.03;36.10;;;;;;;-148.33;100.00;56587.81;4989507;28;20030;-66
2022/12/10 06:16:21;;;;;;;88.40;35.17;;;;;;;-148.33;100.00;56587.81;4989741;28;20034;-66
2022/12/10 06:18:46;;;;;;;82.27;34.70;;;;;;;-148.33;100.00;56587.81;4988540;28;20049;-66
2022/12/10 06:21:15;;;;;;;82.93;34.53;;;;;;;-148.33;100.00;56587.81;4989290;28;20080;-66
2022/12/10 06:23:42;;;;;;;86.60;36.50;;;;;;;-148.33;100.00;56587.81;4988892;28;20030;-66
2022/12/10 06:26:08;;;;;;;80.97;32.87;;;;;;;-148.33;100.00;56587.81;4988046;28;20375;-67
2022/12/10 06:28:33;;;;;;;89.17;34.80;;;;;;;-148.33;100.00;56587.81;4987608;28;20080;-67
2022/12/10 06:30:59;;;;;;;80.57;32.67;;;;;;;-148.33;100.00;56587.81;4986207;28;20698;-66
2022/12/10 06:33:25;;;;;;;88.97;33.83;;;;;;;-148.33;100.00;56587.81;4985248;28;20447;-66
2022/12/10 06:35:50;;;;;;;81.80;34.60;;;;;;;-148.33;100.00;56587.81;4986492;28;20084;-66
2022/12/10 06:38:16;;;;;;;84.73;36.00;;;;;;;-148.33;100.00;56587.81;4985962;28;20367;-67
2022/12/10 06:40:41;;;;;;;84.20;35.30;;;;;;;-148.33;100.00;56587.81;4989206;28;20344;-66
2022/12/10 06:43:06;;;;;;;87.00;35.37;;;;;;;-148.33;100.00;56587.81;4986653;28;20034;-66
2022/12/10 06:45:32;;;;;;;78.83;33.23;;;;;;;-148.33;100.00;56587.81;4989110;28;20058;-66
2022/12/10 06:47:57;;;;;;;83.00;32.47;;;;;;;-148.33;100.00;56587.81;4987092;28;20129;-66
2022/12/10 06:50:22;;;;;;;83.50;31.20;;;;;;;-148.33;100.00;56587.81;4981688;28;20069;-66
2022/12/10 06:52:50;;;;;;;82.47;31.50;;;;;;;-148.33;100.00;56587.81;4986142;28;20146;-66
2022/12/10 06:55:15;;;;;;;89.33;33.60;;;;;;;-148.33;100.00;56587.81;4988307;28;20029;-66
2022/12/10 06:57:41;;;;;;;84.03;32.70;;;;;;;-148.33;100.00;56587.81;4989099;28;20375;-66
2022/12/10 07:00:07;;;;;;;79.70;31.37;;;;;;;-148.33;100.00;56587.81;4988154;28;20033;-66
2022/12/10 07:02:33;;;;;;;80.50;30.93;;;;;;;-148.33;100.00;56587.81;4988950;28;20578;-66
2022/12/10 07:04:59;;;;;;;78.67;32.00;;;;;;;-148.33;100.00;56587.81;4988358;28;20057;-67
2022/12/10 07:07:24;;;;;;;81.30;31.43;;;;;;;-148.33;100.00;56587.81;4988585;28;20030;-66
2022/12/10 07:09:49;;;;;;;83.77;33.13;;;;;;;-148.33;100.00;56587.81;4988615;28;20403;-66
2022/12/10 07:12:15;;;;;;;82.67;33.57;;;;;;;-148.33;100.00;56587.81;4986438;28;20034;-66
2022/12/10 07:14:40;;;;;;;81.83;33.03;;;;;;;-148.33;100.00;56587.81;4980540;28;20110;-67
2022/12/10 07:17:06;;;;;;;86.27;34.53;;;;;;;-148.33;100.00;56587.81;4988266;28;20034;-66
2022/12/10 07:19:31;;;;;;;85.07;33.33;;;;;;;-148.33;100.00;56587.81;4985367;28;20030;-66
2022/12/10 07:21:56;;;;;;;82.33;33.30;;;;;;;-148.33;100.00;56587.81;4988317;28;20018;-67
2022/12/10 07:24:22;;;;;;;85.33;33.13;;;;;;;-148.33;100.00;56587.81;4987905;28;20475;-67
2022/12/10 07:26:47;;;;;;;85.40;33.50;;;;;;;-148.33;100.00;56587.81;4985732;28;20055;-67
2022/12/10 07:29:16;;;;;;;84.07;33.07;;;;;;;-148.33;100.00;56587.81;4987007;28;20037;-66
2022/12/10 07:31:41;;;;;;;84.83;34.53;;;;;;;-148.33;100.00;56587.81;4985988;28;20383;-67
2022/12/10 07:34:07;;;;;;;85.47;31.47;;;;;;;-148.33;100.00;56587.81;4984809;28;20037;-66
2022/12/10 07:36:33;;;;;;;87.60;33.47;;;;;;;-148.33;100.00;56587.81;4985246;28;20030;-67
2022/12/10 07:38:58;;;;;;;87.57;32.43;;;;;;;-148.33;100.00;56587.81;4985765;28;20497;-66
2022/12/10 07:41:25;;;;;;;88.33;33.03;;;;;;;-148.33;100.00;56587.81;4985555;28;20030;-66
2022/12/10 07:43:50;;;;;;;88.47;33.00;;;;;;;-148.33;100.00;56587.81;4984264;28;20158;-66
2022/12/10 07:46:24;;;;;;;86.07;35.33;;;;;;;-148.33;100.00;56587.81;4984497;28;20137;-67
2022/12/10 07:48:50;;;;;;;86.67;32.77;;;;;;;-148.33;100.00;56587.81;4982904;28;20037;-67
2022/12/10 07:51:17;;;;;;;91.40;34.83;;;;;;;-148.33;100.00;56587.81;4984815;28;20030;-66
2022/12/10 07:53:43;;;;;;;96.73;35.23;;;;;;;-148.33;100.00;56587.81;4987093;28;20437;-67
2022/12/10 07:56:09;;;;;;;83.07;32.10;;;;;;;-148.33;100.00;56587.81;4986597;28;20030;-67
2022/12/10 07:58:35;;;;;;;94.70;34.50;;;;;;;-148.33;100.00;56587.81;4986624;28;20032;-67
2022/12/10 08:01:08;;;;;;;94.40;36.87;;;;;;;-148.33;100.00;56587.81;4986659;28;20038;-66
2022/12/10 08:03:33;;;;;;;91.47;35.27;;;;;;;-148.33;100.00;56587.81;4984070;28;20026;-66
2022/12/10 08:06:03;;;;;;;99.13;36.97;;;;;;;-148.33;100.00;56587.81;4986332;28;20034;-67
2022/12/10 08:08:29;;;;;;;92.07;34.20;;;;;;;-148.33;100.00;56587.81;4987074;28;20041;-67
2022/12/10 08:10:54;;;;;;;89.03;32.83;;;;;;;-148.33;100.00;56587.81;4986251;28;20022;-66
2022/12/10 08:13:19;;;;;;;91.83;37.90;;;;;;;-148.33;100.00;56587.81;4987650;28;20014;-66
2022/12/10 08:15:44;;;;;;;101.23;34.77;;;;;;;-148.33;100.00;56587.81;4986504;28;20490;-66
2022/12/10 08:18:10;;;;;;;93.93;37.57;;;;;;;-148.33;100.00;56587.81;4984265;28;20113;-67
2022/12/10 08:20:35;;;;;;;95.13;35.10;;;;;;;-148.33;100.00;56587.81;4986612;28;20029;-67
2022/12/10 08:23:00;;;;;;;99.37;34.23;;;;;;;-148.33;100.00;56587.81;4985726;28;20026;-66
2022/12/10 08:25:26;;;;;;;94.10;37.20;;;;;;;-148.33;100.00;56587.81;4986111;28;20030;-66
2022/12/10 08:27:51;;;;;;;100.70;37.00;;;;;;;-148.33;100.00;56587.81;4986489;28;20463;-66
2022/12/10 08:30:16;;;;;;;97.60;35.37;;;;;;;-148.33;100.00;56587.81;4986441;28;20037;-67
2022/12/10 08:32:42;;;;;;;108.00;37.97;;;;;;;-148.33;100.00;56587.81;4986651;28;20045;-67
2022/12/10 08:35:07;;;;;;;94.03;35.90;;;;;;;-148.33;100.00;56587.81;4987253;28;20168;-66
2022/12/10 08:37:32;;;;;;;102.87;35.80;;;;;;;-148.33;100.00;56587.81;4986426;28;20035;-67
2022/12/10 08:39:58;;;;;;;105.13;37.00;;;;;;;-148.33;100.00;56587.81;4985343;28;20026;-67
2022/12/10 08:42:23;;;;;;;105.37;36.23;;;;;;;-148.33;100.00;56587.81;4987909;28;20033;-67
2022/12/10 08:44:48;;;;;;;100.00;35.67;;;;;;;-148.33;100.00;56587.81;4985771;28;20022;-67
2022/12/10 08:47:13;;;;;;;96.77;33.63;;;;;;;-148.33;100.00;56587.81;4986858;28;20122;-67
2022/12/10 08:49:39;;;;;;;96.83;32.97;;;;;;;-148.33;100.00;56587.81;4984620;28;20379;-67
2022/12/10 08:52:04;;;;;;;95.93;34.27;;;;;;;-148.33;100.00;56587.81;4984321;28;20026;-67
2022/12/10 08:54:29;;;;;;;94.67;33.10;;;;;;;-148.33;100.00;56587.81;4987142;28;20518;-67
2022/12/10 08:56:54;;;;;;;97.67;34.37;;;;;;;-148.33;100.00;56587.81;4984099;28;20019;-66
2022/12/10 08:59:20;;;;;;;97.80;35.07;;;;;;;-148.33;100.00;56587.81;4986999;28;20033;-66
2022/12/10 09:01:45;;;;;;;87.30;31.87;;;;;;;-148.33;100.00;56587.81;4985812;28;20042;-66
2022/12/10 09:04:12;;;;;;;85.10;31.33;;;;;;;-148.33;100.00;56587.81;4984282;28;20391;-67
2022/12/10 09:06:37;;;;;;;94.27;33.47;;;;;;;-148.33;100.00;56587.81;4987556;28;20026;-66
2022/12/10 09:09:03;;;;;;;95.83;33.37;;;;;;;-148.33;100.00;56587.81;4986478;28;20033;-67
2022/12/10 09:11:32;;;;;;;94.27;32.60;;;;;;;-148.33;100.00;56587.81;4987361;28;20533;-67
2022/12/10 09:13:57;;;;;;;90.30;32.73;;;;;;;-148.33;100.00;56587.81;4987297;28;20049;-64
2022/12/10 09:16:31;;;;;;;95.07;33.00;;;;;;;-148.33;100.00;56587.81;4988364;28;20116;-67
2022/12/10 09:18:57;;;;;;;90.77;31.70;;;;;;;-148.33;100.00;56587.81;4989676;28;20030;-66
2022/12/10 09:21:23;;;;;;;99.53;33.60;;;;;;;-148.33;100.00;56587.81;4989742;28;20471;-66
2022/12/10 09:23:49;;;;;;;96.93;34.30;;;;;;;-148.33;100.00;56587.81;4989885;28;20084;-67
2022/12/10 09:26:15;;;;;;;92.53;31.70;;;;;;;-148.33;100.00;56587.81;4990019;28;20030;-66
2022/12/10 09:28:42;;;;;;;91.00;31.83;;;;;;;-148.33;100.00;56587.81;4989598;28;20026;-67
2022/12/10 09:31:08;;;;;;;97.63;34.00;;;;;;;-148.33;100.00;56587.81;4988802;28;20113;-67
2022/12/10 09:33:34;;;;;;;89.27;31.00;;;;;;;-148.33;100.00;56587.81;4989699;28;20045;-66
2022/12/10 09:36:02;;;;;;;93.30;33.27;;;;;;;-148.33;100.00;56587.81;4987672;28;20031;-66
2022/12/10 09:38:27;;;;;;;79.70;31.33;;;;;;;-148.33;100.00;56587.81;4988207;28;20344;-67
2022/12/10 09:41:03;;;;;;;81.63;30.17;;;;;;;-148.33;100.00;56587.81;4990288;28;20065;-67
2022/12/10 09:43:55;;;;;;;97.73;31.63;;;;;;;-148.33;100.00;56587.81;4987314;28;20284;-66
2022/12/10 09:46:33;;;;;;;89.43;30.20;;;;;;;-148.33;100.00;56587.81;4988588;28;20050;-67
2022/12/10 09:49:29;;;;;;;96.47;31.50;;;;;;;-148.33;100.00;56587.81;4975883;28;20121;-66
2022/12/10 09:51:59;;;;;;;87.50;30.97;;;;;;;-148.33;100.00;56587.81;4988598;28;20561;-66
2022/12/10 09:54:31;;;;;;;89.37;30.27;;;;;;;-148.33;100.00;56587.81;4986677;28;20153;-67
2022/12/10 09:56:57;;;;;;;81.13;30.90;;;;;;;-148.33;100.00;56587.81;4988655;28;20023;-66
2022/12/10 09:59:28;;;;;;;91.53;31.17;;;;;;;-148.33;100.00;56587.81;4987930;28;20469;-66
2022/12/10 10:02:03;;;;;;;87.03;32.22;;;;;;;-148.33;100.00;56587.81;4988162;28;20202;-66
2022/12/10 10:04:28;;;;;;;82.83;30.10;;;;;;;-148.33;100.00;56587.81;4986064;28;20037;-66
2022/12/10 10:06:54;;;;;;;85.70;30.77;;;;;;;-148.33;100.00;56587.81;4987938;28;20431;-66
2022/12/10 10:09:20;;;;;;;92.53;32.13;;;;;;;-148.33;100.00;56587.81;4987322;28;20426;-66
2022/12/10 10:11:46;;;;;;;92.80;30.67;;;;;;;-148.33;100.00;56587.81;4987295;28;20045;-66
2022/12/10 10:14:17;;;;;;;94.47;31.03;;;;;;;-148.33;100.00;56587.81;4988436;28;20026;-66
2022/12/10 10:16:47;;;;;;;91.30;30.90;;;;;;;-148.33;100.00;56587.81;4989150;28;20087;-66
2022/12/10 10:19:15;;;;;;;93.97;31.67;;;;;;;-148.33;100.00;56587.81;4988539;28;20463;-66
2022/12/10 10:21:44;;;;;;;92.90;31.50;;;;;;;-148.33;100.00;56587.81;4984454;28;20513;-66
2022/12/10 10:24:18;;;;;;;95.13;32.17;;;;;;;-148.33;100.00;56587.81;4987232;28;20018;-66
2022/12/10 10:26:45;;;;;;;92.07;32.83;;;;;;;-148.33;100.00;56587.81;4986760;28;20034;-66
2022/12/10 10:29:12;;;;;;;93.17;30.17;;;;;;;-148.33;100.00;56587.81;4986036;28;20122;-66
2022/12/10 10:31:41;;;;;;;101.43;31.00;;;;;;;-148.33;100.00;56587.81;4986215;28;20464;-66
2022/12/10 10:34:21;;;;;;;96.93;33.00;;;;;;;-148.33;100.00;56587.81;4987295;28;20032;-67
2022/12/10 10:36:47;;;;;;;90.53;31.60;;;;;;;-148.33;100.00;56587.81;4986114;28;20121;-67
2022/12/10 10:39:15;;;;;;;99.63;30.83;;;;;;;-148.33;100.00;56587.81;4987910;28;20472;-66
2022/12/10 10:41:40;;;;;;;99.90;32.47;;;;;;;-148.33;100.00;56587.81;4988013;28;20030;-66
2022/12/10 10:44:15;;;;;;;87.47;28.57;;;;;;;-148.33;100.00;56587.81;4988532;28;20578;-66
2022/12/10 10:46:42;;;;;;;91.93;29.33;;;;;;;-148.33;100.00;56587.81;4983083;28;20121;-66
2022/12/10 10:49:25;;;;;;;87.20;30.40;;;;;;;-148.33;100.00;56587.81;4983400;28;20041;-66
2022/12/10 10:51:54;;;;;;;97.07;32.37;;;;;;;-148.33;100.00;56587.81;4983762;28;20033;-66
2022/12/10 10:54:34;;;;;;;86.50;30.97;;;;;;;-148.33;100.00;56587.81;4986953;28;20044;-66
2022/12/10 10:57:06;;;;;;;90.87;31.47;;;;;;;-148.33;100.00;56587.81;4987847;28;20041;-66
2022/12/10 10:59:34;;;;;;;88.67;32.00;;;;;;;-148.33;100.00;56587.81;4986898;28;20022;-67
2022/12/10 11:02:20;;;;;;;93.43;31.53;;;;;;;-148.33;100.00;56587.81;4987325;28;20021;-66
2022/12/10 11:04:49;;;;;;;98.40;32.97;;;;;;;-148.33;100.00;56587.81;4987779;28;20028;-66
2022/12/10 11:07:22;;;;;;;90.70;30.57;;;;;;;-148.33;100.00;56587.81;4985032;28;20027;-66
2022/12/10 11:09:49;;;;;;;84.03;29.87;;;;;;;-148.33;100.00;56587.81;4987893;28;20026;-66
2022/12/10 11:12:37;;;;;;;78.03;28.53;;;;;;;-148.33;100.00;56587.81;4986763;28;20022;-66
2022/12/10 11:15:23;;;;;;;85.53;29.67;;;;;;;-148.33;100.00;56587.81;4987651;28;20340;-66